createdAt,value
2022-11-08T17:57:21.887Z,6.87
2022-11-08T17:59:48.442Z,7.02
2022-11-08T18:02:15.085Z,6.97
2022-11-08T18:04:41.583Z,6.88
2022-11-08T18:07:08.436Z,7.00
2022-11-08T18:09:34.890Z,6.98
2022-11-08T18:12:01.367Z,6.93
2022-11-08T18:14:29.056Z,7.05
2022-11-08T18:16:55.884Z,6.91
2022-11-08T18:19:22.402Z,7.00
2022-11-08T18:21:48.918Z,6.98
2022-11-08T18:24:15.470Z,6.91
2022-11-08T18:26:41.873Z,7.05
2022-11-08T18:29:08.525Z,6.92
2022-11-08T18:31:35.042Z,7.03
2022-11-08T18:34:01.507Z,7.01
2022-11-08T18:36:29.102Z,6.92
2022-11-08T18:38:57.428Z,7.00
2022-11-08T18:41:28.154Z,7.03
2022-11-08T18:43:55.542Z,6.90
2022-11-08T18:46:23.540Z,7.05
2022-11-08T18:48:50.443Z,7.00
2022-11-08T18:51:18.285Z,6.93
2022-11-08T18:53:44.745Z,7.05
2022-11-08T18:56:12.583Z,6.97
2022-11-08T18:58:40.050Z,6.93
2022-11-08T19:01:07.971Z,7.09
2022-11-08T19:03:35.545Z,6.98
2022-11-08T19:06:02.073Z,6.98
2022-11-08T19:08:30.582Z,7.07
2022-11-08T19:10:58.434Z,6.95
2022-11-08T19:13:25.768Z,6.97
2022-11-08T19:15:56.092Z,7.09
2022-11-08T19:18:22.633Z,6.96
2022-11-08T19:20:57.999Z,7.02
2022-11-08T19:23:26.003Z,7.07
2022-11-08T19:25:57.101Z,6.94
2022-11-08T19:28:23.966Z,7.01
2022-11-08T19:30:53.750Z,7.04
2022-11-08T19:33:22.398Z,6.94
2022-11-08T19:35:49.075Z,7.05
2022-11-08T19:38:15.568Z,7.01
2022-11-08T19:40:42.383Z,6.93
2022-11-08T19:43:08.967Z,7.09
2022-11-08T19:45:35.426Z,7.01
2022-11-08T19:48:02.054Z,6.97
2022-11-08T19:50:28.846Z,7.11
2022-11-08T19:52:55.597Z,6.99
2022-11-08T19:55:22.063Z,7.03
2022-11-08T19:57:49.221Z,7.10
2022-11-08T20:00:16.413Z,6.97
2022-11-08T20:02:42.874Z,7.03
2022-11-08T20:05:09.847Z,7.09
2022-11-08T20:07:36.774Z,6.96
2022-11-08T20:10:03.517Z,7.08
2022-11-08T20:12:33.036Z,7.04
2022-11-08T20:14:59.571Z,6.96
2022-11-08T20:17:29.394Z,7.12
2022-11-08T20:19:55.847Z,7.03
2022-11-08T20:22:22.471Z,7.00
2022-11-08T20:24:48.924Z,7.15
2022-11-08T20:27:17.006Z,7.04
2022-11-08T20:29:43.467Z,7.00
2022-11-08T20:32:11.489Z,7.19
2022-11-08T20:34:39.571Z,7.03
2022-11-08T20:37:10.647Z,7.06
2022-11-08T20:39:37.127Z,7.16
2022-11-08T20:42:03.611Z,7.01
2022-11-08T20:44:30.038Z,7.12
2022-11-08T20:46:56.468Z,7.14
2022-11-08T20:49:22.891Z,7.02
2022-11-08T20:51:49.303Z,7.13
2022-11-08T20:54:16.743Z,7.16
2022-11-08T20:56:44.235Z,7.04
2022-11-08T20:59:13.215Z,7.14
2022-11-08T21:01:39.806Z,7.13
2022-11-08T21:04:06.450Z,7.04
2022-11-08T21:06:35.936Z,7.18
2022-11-08T21:09:23.370Z,7.11
2022-11-08T21:11:49.903Z,7.09
2022-11-08T21:14:16.528Z,7.23
2022-11-08T21:17:14.638Z,7.11
2022-11-08T21:19:29.440Z,7.17
2022-11-08T21:22:14.975Z,7.23
2022-11-08T21:24:43.718Z,7.10
2022-11-08T21:27:10.229Z,7.22
2022-11-08T21:29:36.677Z,7.21
2022-11-08T21:32:03.316Z,7.12
2022-11-08T21:34:32.531Z,7.26
2022-11-08T21:37:01.444Z,7.19
2022-11-08T21:39:27.855Z,7.13
2022-11-08T21:41:54.269Z,7.30
2022-11-08T21:44:20.953Z,7.18
2022-11-08T21:46:47.615Z,7.15
2022-11-08T21:49:16.311Z,7.30
2022-11-08T21:51:42.755Z,7.16
2022-11-08T21:54:09.230Z,7.22
2022-11-08T21:56:35.804Z,7.33
2022-11-08T21:59:03.357Z,7.17
2022-11-08T22:01:32.030Z,7.28
2022-11-08T22:03:59.384Z,7.30
2022-11-08T22:06:26.550Z,7.19
2022-11-08T22:08:55.290Z,7.36
2022-11-08T22:11:21.755Z,7.31
2022-11-08T22:13:48.276Z,7.26
2022-11-08T22:16:14.798Z,7.43
2022-11-08T22:21:40.759Z,7.28
2022-11-08T22:24:10.974Z,7.47
2022-11-08T22:26:39.894Z,7.32
2022-11-08T22:29:07.601Z,7.41
2022-11-08T22:31:34.081Z,7.45
2022-11-08T22:34:01.238Z,7.33
2022-11-08T22:36:28.107Z,7.45
2022-11-08T22:38:55.187Z,7.43
2022-11-08T22:41:22.074Z,7.33
2022-11-08T22:43:48.919Z,7.49
2022-11-08T22:46:15.438Z,7.43
2022-11-08T22:48:42.021Z,7.34
2022-11-08T22:51:08.870Z,7.52
2022-11-08T22:53:35.768Z,7.45
2022-11-08T22:56:05.586Z,7.35
2022-11-08T22:58:36.502Z,7.51
2022-11-08T23:01:03.068Z,7.42
2022-11-08T23:03:29.615Z,7.41
2022-11-08T23:05:57.161Z,7.55
2022-11-08T23:08:24.620Z,7.39
2022-11-08T23:11:10.254Z,7.43
2022-11-08T23:13:55.487Z,7.56
2022-11-08T23:16:37.942Z,7.46
2022-11-08T23:19:25.319Z,7.58
2022-11-08T23:22:11.155Z,7.53
2022-11-08T23:24:37.637Z,7.49
2022-11-08T23:27:23.864Z,7.66
2022-11-08T23:30:09.067Z,7.49
2022-11-08T23:32:35.545Z,7.61
2022-11-08T23:35:02.309Z,7.61
2022-11-08T23:37:29.623Z,7.50
2022-11-08T23:40:16.520Z,7.62
2022-11-08T23:43:01.465Z,7.63
2022-11-08T23:45:30.227Z,7.58
2022-11-08T23:47:58.763Z,7.75
2022-11-08T23:50:25.207Z,7.62
2022-11-08T23:52:53.898Z,7.62
2022-11-08T23:55:20.354Z,7.76
2022-11-08T23:57:48.895Z,7.61
